Flight Track Log - Related Links

Times and Time Zones

All times are in EST time to prevent confusion due to time zone crossing. See the UAL1423 flight status page for this flight to view local times or setup timezone preferences in your user account.

Time Position Orientation Groundspeed Altitude Reporting Facility
EST Latitude Longitude Course Direction KTS MPH feet Rate Location/Type
Wed 09:18:00 AM 12.4562 -86.2857 340° North  Level FlightAware Approximate
Wed 09:19:00 AM 12.5611 -86.3250 340° North  Level FlightAware Approximate
Wed 09:20:00 AM 12.6660 -86.3643 340° North  Level FlightAware Approximate
Wed 09:21:00 AM 12.7708 -86.4036 340° North  Level FlightAware Approximate
Wed 09:22:00 AM 12.8757 -86.4429 340° North  Level FlightAware Approximate
Wed 09:23:00 AM 12.9806 -86.4823 340° North  Level FlightAware Approximate
Wed 09:24:00 AM 13.0854 -86.5217 340° North  Level FlightAware Approximate
Wed 09:25:00 AM 13.1903 -86.5612 340° North  Level FlightAware Approximate
Wed 09:26:00 AM 13.2951 -86.6007 340° North  Level FlightAware Approximate
Wed 09:27:00 AM 13.4000 -86.6402 340° North  Level FlightAware Approximate
Wed 09:28:00 AM 13.5048 -86.6797 340° North  Level FlightAware Approximate
Wed 09:29:00 AM 13.6096 -86.7193 340° North  Level FlightAware Approximate
Wed 09:30:00 AM 13.7144 -86.7589 340° North  Level FlightAware Approximate
Wed 09:31:00 AM 13.8193 -86.7986 340° North  Level FlightAware Approximate
Wed 09:32:00 AM 13.9241 -86.8383 340° North  Level FlightAware Approximate
Wed 09:33:00 AM 14.0289 -86.8780 340° North  Level FlightAware Approximate
Wed 09:34:00 AM 14.1337 -86.9178 340° North  Level FlightAware Approximate
Wed 09:35:00 AM 14.2351 -86.9660 340° North  Level Estimated
Wed 09:36:00 AM 14.3401 -87.0053 340° North  Level FlightAware Approximate
Wed 09:37:00 AM 14.4450 -87.0446 340° North  Level FlightAware Approximate
Wed 09:37:17 AM 13.9390 -87.2090 340° North 469 540 36,000  Level FlightAware ADS-B
Wed 09:38:00 AM 14.5500 -87.0839 340° North  Level FlightAware Approximate
Wed 09:38:08 AM 14.0470 -87.2430 343° North 475 547 36,000  Level FlightAware ADS-B
Wed 09:38:58 AM 14.1360 -87.2730 342° North 475 547 36,000  Level FlightAware ADS-B
Wed 09:39:00 AM 14.6550 -87.1233 340° North  Level FlightAware Approximate
Wed 09:39:31 AM 14.2130 -87.2950 345° North 474 545 36,000  Level FlightAware ADS-B
Wed 09:40:19 AM 14.3160 -87.3280 343° North 475 547 36,000  Level FlightAware ADS-B
Wed 09:41:10 AM 14.4070 -87.3590 342° North 475 547 36,000  Level FlightAware ADS-B
Wed 09:41:46 AM 14.4710 -87.3800 342° North 475 547 36,000  Level FlightAware ADS-B
Wed 09:42:23 AM 14.5370 -87.4020 342° North 475 547 36,000  Level FlightAware ADS-B
Wed 09:42:47 AM 14.5790 -87.4160 342° North 475 547 36,000  Level FlightAware ADS-B
Wed 09:44:00 AM 14.7090 -87.4600 342° North 475 547 36,000  Level FlightAware ADS-B
Wed 09:44:37 AM 14.7750 -87.4820 342° North 475 547 36,000  Level FlightAware ADS-B
Wed 09:45:27 AM 14.8640 -87.5120 342° North 475 547 36,000  Level FlightAware ADS-B
Wed 09:46:16 AM 14.9510 -87.5410 342° North 475 547 36,000  Level FlightAware ADS-B
Wed 09:46:50 AM 15.0110 -87.5610 342° North 475 547 36,000  Level FlightAware ADS-B
Wed 09:47:49 AM 15.1160 -87.5970 342° North 475 547 36,000  Level FlightAware ADS-B
Wed 09:48:25 AM 15.1800 -87.6180 342° North 475 547 36,000  Level FlightAware ADS-B
Wed 09:49:15 AM 15.2690 -87.6480 342° North 475 547 36,000  Level FlightAware ADS-B
Wed 09:49:51 AM 15.3330 -87.6700 342° North 475 547 36,000  Level FlightAware ADS-B
Wed 09:50:16 AM 15.3770 -87.6850 342° North 475 547 36,000 91 Level FlightAware ADS-B
Wed 09:53:00 AM 15.6376 -87.8079 336° Northwest  Level Estimated
Wed 09:54:00 AM 15.7330 -87.8529 336° Northwest  Level Estimated
Wed 09:55:00 AM 15.8283 -87.8980 336° Northwest  Level Estimated
Wed 09:56:00 AM 15.9236 -87.9431 336° Northwest  Level Estimated
Wed 09:57:00 AM 16.0189 -87.9882 336° Northwest  Level Estimated
Wed 09:58:00 AM 16.1142 -88.0334 336° Northwest  Level Estimated
Wed 09:59:00 AM 16.2094 -88.0787 335° Northwest  Level Estimated
Wed 10:00:00 AM 16.3047 -88.1239 335° Northwest  Level Estimated
Wed 10:01:00 AM 16.4000 -88.1693 335° Northwest  Level Estimated
Wed 10:02:00 AM 16.4953 -88.2146 335° Northwest  Level Estimated
Wed 10:03:00 AM 16.5905 -88.2601 335° Northwest  Level Estimated
Wed 10:04:00 AM 16.6857 -88.3055 335° Northwest  Level Estimated
Wed 10:05:00 AM 16.7810 -88.3510 335° Northwest  Level Estimated
Wed 10:06:00 AM 16.8762 -88.3966 335° Northwest  Level Estimated
Wed 10:07:00 AM 16.9714 -88.4422 335° Northwest  Level Estimated
Wed 10:08:00 AM 17.0666 -88.4878 335° Northwest  Level Estimated
Wed 10:09:00 AM 17.1618 -88.5335 335° Northwest  Level Estimated
Wed 10:10:00 AM 17.2570 -88.5793 335° Northwest  Level Estimated
Wed 10:11:00 AM 17.3521 -88.6251 335° Northwest  Level Estimated
Wed 10:11:52 AM 17.9860 -88.9980 335° Northwest 462 532 38,000  Level FlightAware ADS-B
Wed 10:12:00 AM 17.4473 -88.6709 335° Northwest  Level Estimated
Wed 10:12:52 AM 18.1260 -89.0280 348° North 460 529 38,000  Level FlightAware ADS-B
Wed 10:13:11 AM 18.1650 -89.0370 348° North 460 529 38,000  Level FlightAware ADS-B
Wed 10:14:00 AM 18.2670 -89.0590 348° North 460 529 38,000  Level FlightAware ADS-B
Wed 10:14:27 AM 18.2870 -89.0640 347° North 460 529 38,000  Level FlightAware ADS-B
Wed 10:15:20 AM 18.4360 -89.0970 348° North 460 529 38,000  Level FlightAware ADS-B
Wed 10:16:05 AM 18.5200 -89.1150 349° North 461 531 38,000  Level FlightAware ADS-B
Wed 10:16:52 AM 18.6300 -89.1390 348° North 461 531 38,000  Level FlightAware ADS-B
Wed 10:17:24 AM 18.6980 -89.1540 348° North 460 529 38,000  Level FlightAware ADS-B
Wed 10:18:01 AM 18.7710 -89.1710 348° North 459 528 38,000  Level FlightAware ADS-B
Wed 10:18:58 AM 18.8930 -89.1970 349° North 460 529 38,000  Level FlightAware ADS-B
Wed 10:19:38 AM 18.9760 -89.2160 348° North 461 531 38,000  Level FlightAware ADS-B
Wed 10:20:15 AM 19.0490 -89.2320 348° North 461 531 38,000  Level FlightAware ADS-B
Wed 10:20:56 AM 19.1390 -89.2520 348° North 462 532 38,000  Level FlightAware ADS-B
Wed 10:21:36 AM 19.2240 -89.2710 348° North 462 532 38,000  Level FlightAware ADS-B
Wed 10:22:19 AM 19.3120 -89.2900 348° North 463 533 38,000  Level FlightAware ADS-B
Wed 10:22:42 AM 19.3630 -89.3020 347° North 463 533 38,000  Level FlightAware ADS-B
Wed 10:23:26 AM 19.4530 -89.3220 348° North 461 531 38,000  Level FlightAware ADS-B
Wed 10:24:12 AM 19.5510 -89.3440 348° North 460 529 38,000  Level FlightAware ADS-B
Wed 10:24:52 AM 19.6340 -89.3620 348° North 459 528 38,000  Level FlightAware ADS-B
Wed 10:25:30 AM 19.7150 -89.3800 348° North 458 527 38,000  Level FlightAware ADS-B
Wed 10:26:00 AM 19.7750 -89.3940 348° North 458 527 38,000  Level FlightAware ADS-B
Wed 10:26:40 AM 19.8590 -89.4130 348° North 459 528 38,000  Level FlightAware ADS-B
Wed 10:27:20 AM 19.9430 -89.4320 348° North 460 529 38,000  Level FlightAware ADS-B
Wed 10:28:02 AM 20.0300 -89.4510 348° North 459 528 38,000  Level FlightAware ADS-B
Wed 10:29:06 AM 20.1640 -89.4810 348° North 460 529 38,000  Level FlightAware ADS-B
Wed 10:29:38 AM 20.2320 -89.4960 348° North 462 532 38,000  Level FlightAware ADS-B
Wed 10:30:14 AM 20.3060 -89.5130 348° North 462 532 38,000  Level FlightAware ADS-B
Wed 10:30:57 AM 20.3960 -89.5330 348° North 462 532 38,000  Level FlightAware ADS-B
Wed 10:31:58 AM 20.5240 -89.5620 348° North 459 528 38,000  Level FlightAware ADS-B
Wed 10:32:58 AM 20.6480 -89.5910 348° North 457 526 38,000  Level FlightAware ADS-B
Wed 10:33:38 AM 20.7310 -89.6090 349° North 456 525 38,000  Level FlightAware ADS-B
Wed 10:34:41 AM 20.8610 -89.6390 348° North 455 524 38,000  Level FlightAware ADS-B
Wed 10:35:43 AM 20.9860 -89.6780 344° North 448 516 38,000  Level FlightAware ADS-B
Wed 10:36:22 AM 21.0560 -89.7100 337° Northwest 447 514 38,000  Level FlightAware ADS-B
Wed 10:36:53 AM 21.1190 -89.7390 337° Northwest 447 514 38,000  Level FlightAware ADS-B
Wed 10:37:21 AM 21.1720 -89.7640 336° Northwest 447 514 38,000  Level FlightAware ADS-B
Wed 10:38:03 AM 21.2540 -89.8010 337° Northwest 446 513 38,000  Level FlightAware ADS-B
Wed 10:38:41 AM 21.3230 -89.8330 337° Northwest 446 513 38,000  Level FlightAware ADS-B
Wed 10:39:23 AM 21.3990 -89.8680 337° Northwest 447 514 38,000  Level FlightAware ADS-B
Wed 10:39:55 AM 21.4650 -89.8990 336° Northwest 447 514 38,000  Level FlightAware ADS-B
Wed 10:40:40 AM 21.5510 -89.9380 337° Northwest 447 514 38,000  Level FlightAware ADS-B
Wed 10:41:18 AM 21.6230 -89.9720 336° Northwest 447 514 38,000  Level FlightAware ADS-B
Wed 10:41:59 AM 21.7010 -90.0080 337° Northwest 447 514 38,000  Level FlightAware ADS-B
Wed 10:42:31 AM 21.7630 -90.0370 337° Northwest 447 514 38,000  Level FlightAware ADS-B
Wed 10:43:15 AM 21.8470 -90.0750 337° Northwest 446 513 38,000  Level FlightAware ADS-B
Wed 10:43:43 AM 21.8990 -90.1000 336° Northwest 446 513 38,000  Level FlightAware ADS-B
Wed 10:44:22 AM 21.9710 -90.1330 337° Northwest 446 513 38,000  Level FlightAware ADS-B
Wed 10:44:54 AM 22.0330 -90.1620 337° Northwest 446 513 38,000  Level FlightAware ADS-B
Wed 10:45:29 AM 22.1020 -90.1940 337° Northwest 446 513 38,000  Level FlightAware ADS-B
Wed 10:46:26 AM 22.2080 -90.2440 336° Northwest 443 510 38,000  Level FlightAware ADS-B
Wed 10:46:53 AM 22.2610 -90.2690 336° Northwest 443 510 38,000  Level FlightAware ADS-B
Wed 10:47:27 AM 22.3250 -90.2990 337° Northwest 444 511 38,000  Level FlightAware ADS-B
Wed 10:47:59 AM 22.3840 -90.3260 337° Northwest 443 510 38,000  Level FlightAware ADS-B
Wed 10:48:33 AM 22.4490 -90.3570 336° Northwest 442 509 38,000  Level FlightAware ADS-B
Wed 10:49:18 AM 22.5320 -90.3960 337° Northwest 441 507 38,000  Level FlightAware ADS-B
Wed 10:50:06 AM 22.6240 -90.4390 337° Northwest 441 507 38,000  Level FlightAware ADS-B
Wed 10:50:40 AM 22.6860 -90.4680 337° Northwest 439 505 38,000  Level FlightAware ADS-B
Wed 10:51:24 AM 22.7650 -90.5050 337° Northwest 439 505 38,000  Level FlightAware ADS-B
Wed 10:52:28 AM 22.8890 -90.5640 336° Northwest 442 509 38,000  Level FlightAware ADS-B
Wed 10:53:08 AM 22.9640 -90.5990 337° Northwest 445 512 38,000  Level FlightAware ADS-B
Wed 10:53:36 AM 23.0170 -90.6240 337° Northwest 445 512 38,000  Level FlightAware ADS-B
Wed 10:54:48 AM 23.1510 -90.6880 336° Northwest 445 512 38,000  Level FlightAware ADS-B
Wed 10:55:16 AM 23.2060 -90.7140 337° Northwest 446 513 38,000  Level FlightAware ADS-B
Wed 10:55:46 AM 23.2620 -90.7410 336° Northwest 446 513 38,000  Level FlightAware ADS-B
Wed 10:56:30 AM 23.3470 -90.7810 337° Northwest 445 512 38,000  Level FlightAware ADS-B
Wed 10:57:13 AM 23.4270 -90.8190 336° Northwest 443 510 38,000  Level FlightAware ADS-B
Wed 10:57:25 AM 23.4430 -90.8270 335° Northwest 443 510 38,000  Level FlightAware ADS-B
Wed 10:57:55 AM 23.4680 -90.8390 336° Northwest 443 510 38,000  Level FlightAware ADS-B
Wed 10:58:54 AM 23.6150 -90.9090 336° Northwest 440 506 38,000  Level FlightAware ADS-B
Wed 10:59:28 AM 23.6490 -90.9250 337° Northwest 440 506 38,000  Level FlightAware ADS-B
Wed 11:00:18 AM 23.7380 -90.9680 336° Northwest 439 505 38,000  Level FlightAware ADS-B
Wed 11:00:52 AM 23.8060 -91.0000 337° Northwest 438 504 38,000  Level FlightAware ADS-B
Wed 11:01:00 AM 23.8200 -91.0070 335° Northwest 438 504 38,000  Level FlightAware ADS-B
Wed 11:01:47 AM 23.9070 -91.0490 336° Northwest 441 507 38,000  Level FlightAware ADS-B
Wed 11:02:26 AM 23.9770 -91.0820 337° Northwest 442 509 38,000  Level FlightAware ADS-B
Wed 11:03:10 AM 24.0480 -91.1170 336° Northwest 442 509 38,000  Level FlightAware ADS-B
Wed 11:03:36 AM 24.1100 -91.1460 337° Northwest 441 507 38,000  Level FlightAware ADS-B
Wed 11:04:38 AM 24.2030 -91.1920 336° Northwest 441 507 38,000  Level FlightAware ADS-B
Wed 11:05:14 AM 24.2600 -91.2190 337° Northwest 441 507 38,000  Level FlightAware ADS-B
Wed 11:05:38 AM 24.2980 -91.2380 336° Northwest 441 507 38,000  Level FlightAware ADS-B
Wed 11:06:24 AM 24.3710 -91.2740 336° Northwest 441 507 38,000  Level FlightAware ADS-B
Wed 11:07:00 AM 24.4280 -91.3010 337° Northwest 441 507 38,000  Level FlightAware ADS-B
Wed 11:07:39 AM 24.4900 -91.3320 336° Northwest 441 507 38,000  Level FlightAware ADS-B
Wed 11:08:28 AM 24.5680 -91.3700 336° Northwest 441 507 38,000  Level FlightAware ADS-B
Wed 11:09:05 AM 24.6260 -91.3980 336° Northwest 441 507 38,000  Level FlightAware ADS-B
Wed 11:09:51 AM 24.6990 -91.4340 336° Northwest 441 507 38,000  Level FlightAware ADS-B
Wed 11:10:16 AM 24.7390 -91.4540 336° Northwest 441 507 38,000  Level FlightAware ADS-B
Wed 11:10:52 AM 24.7960 -91.4820 336° Northwest 441 507 38,000  Level FlightAware ADS-B
Wed 11:11:34 AM 24.8620 -91.5140 336° Northwest 441 507 38,000  Level FlightAware ADS-B
Wed 11:12:23 AM 24.9400 -91.5520 336° Northwest 441 507 38,000  Level FlightAware ADS-B
Wed 11:12:59 AM 24.9970 -91.5800 336° Northwest 441 507 38,000  Level FlightAware ADS-B
Wed 11:13:24 AM 25.0370 -91.6000 336° Northwest 441 507 38,000  Level FlightAware ADS-B
Wed 11:16:00 AM 25.2855 -91.7862 326° Northwest  Level FlightAware Approximate
Wed 11:17:00 AM 25.3810 -91.8580 326° Northwest  Level FlightAware Approximate
Wed 11:18:00 AM 25.4729 -91.9273 326° Northwest  Level FlightAware Approximate
Wed 11:19:00 AM 25.5649 -91.9966 326° Northwest  Level FlightAware Approximate
Wed 11:20:00 AM 25.6567 -92.0661 326° Northwest  Level FlightAware Approximate
Wed 11:21:00 AM 25.7486 -92.1357 326° Northwest  Level FlightAware Approximate
Wed 11:22:00 AM 25.8426 -92.2060 330° Northwest  Level FlightAware Approximate
Wed 11:23:00 AM 25.9386 -92.2683 330° Northwest  Level FlightAware Approximate
Wed 11:24:00 AM 26.0346 -92.3308 330° Northwest  Level FlightAware Approximate
Wed 11:25:00 AM 26.1305 -92.3934 330° Northwest  Level FlightAware Approximate
Wed 11:26:00 AM 26.2265 -92.4561 330° Northwest  Level FlightAware Approximate
Wed 11:27:00 AM 26.3224 -92.5189 330° Northwest  Level FlightAware Approximate
Wed 11:28:00 AM 26.4183 -92.5817 330° Northwest  Level FlightAware Approximate
Wed 11:29:00 AM 26.5141 -92.6447 330° Northwest  Level FlightAware Approximate
Wed 11:30:00 AM 26.6099 -92.7078 330° Northwest  Level FlightAware Approximate
Wed 11:31:00 AM 26.7068 -92.7717 329° Northwest  Level FlightAware Approximate
Wed 11:32:00 AM 26.8040 -92.8348 342° North  Level FlightAware Approximate
Wed 11:33:00 AM 26.9107 -92.8748 342° North  Level FlightAware Approximate
Wed 11:33:36 AM 27.3157 -93.0508 342° North 38,000  Level FlightAware ADS-B
Wed 11:33:40 AM 27.3231 -93.0538 340° North 435 501 38,000  Level FlightAware ADS-B
Wed 11:34:40 AM 27.4354 -93.0995 340° North 433 498 38,000  Level FlightAware ADS-B
Wed 11:39:41 AM 28.0075 -93.3211 341° North 437 503 38,000  Level FlightAware ADS-B
Wed 11:40:11 AM 28.0669 -93.3433 342° North 437 503 38,000  Level FlightAware ADS-B
Wed 11:40:43 AM 28.1277 -93.3662 342° North 436 502 38,000  Level FlightAware ADS-B
Wed 11:41:31 AM 28.2188 -93.4003 342° North 433 498 38,000  Level FlightAware ADS-B
Wed 11:41:38 AM 28.2251 -93.4027 341° North 431 496 38,000  Level FlightAware ADS-B
Wed 11:42:02 AM 28.2769 -93.4223 342° North 430 495 38,000  Level FlightAware ADS-B
Wed 11:42:33 AM 28.3356 -93.4443 342° North 430 495 38,000  Level FlightAware ADS-B
Wed 11:43:03 AM 28.3922 -93.4656 342° North 430 495 38,000 -932 Level FlightAware ADS-B
Wed 11:48:40 AM 29.0296 -93.7065 342° North 444 511 32,300 -1,235 Descending FlightAware ADS-B
Wed 11:49:17 AM 29.1016 -93.7339 342° North 449 517 30,300 -3,300 Descending FlightAware ADS-B
Wed 11:49:20 AM 29.1073 -93.7361 342° North 448 516 30,100 -3,097 Descending FlightAware ADS-B
Wed 11:49:48 AM 29.1618 -93.7570 341° North 449 517 28,700 -3,500 Descending FlightAware ADS-B
Wed 11:49:56 AM 29.1779 -93.7632 341° North 447 514 28,000 -2,800 Descending FlightAware ADS-B
Wed 11:50:18 AM 29.2209 -93.7798 341° North 441 507 27,300 -2,229 Descending FlightAware ADS-B
Wed 11:50:31 AM 29.2447 -93.7888 342° North 437 503 26,700 -2,800 Descending FlightAware ADS-B
Wed 11:50:48 AM 29.2790 -93.8016 342° North 433 498 25,900 -2,800 Descending FlightAware ADS-B
Wed 11:51:01 AM 29.3004 -93.8097 342° North 430 495 25,300 -2,600 Descending FlightAware ADS-B
Wed 11:51:18 AM 29.3358 -93.8231 342° North 425 489 24,600 -2,550 Descending FlightAware ADS-B
Wed 11:51:41 AM 29.3774 -93.8390 342° North 418 481 23,600 -2,516 Descending FlightAware ADS-B
Wed 11:51:49 AM 29.3929 -93.8451 341° North 415 478 23,300 -2,400 Descending FlightAware ADS-B
Wed 11:52:11 AM 29.4323 -93.8603 341° North 408 470 22,400 -2,600 Descending FlightAware ADS-B
Wed 11:52:19 AM 29.4471 -93.8660 341° North 405 466 22,000 -2,700 Descending FlightAware ADS-B
Wed 11:52:31 AM 29.4678 -93.8745 340° North 399 459 21,500 -2,333 Descending FlightAware ADS-B
Wed 11:52:37 AM 29.4779 -93.8804 333° Northwest 393 452 21,300 -2,000 Descending FlightAware ADS-B
Wed 11:52:40 AM 29.4793 -93.8813 330° Northwest 392 451 21,200 -2,000 Descending FlightAware ADS-B
Wed 11:52:43 AM 29.4854 -93.8862 325° Northwest 390 449 21,100 -2,667 Descending FlightAware ADS-B
Wed 11:52:49 AM 29.4940 -93.8946 320° Northwest 386 444 20,800 -2,571 Descending FlightAware ADS-B
Wed 11:52:50 AM 29.4933 -93.8939 138° Southeast 385 443 20,800 -2,000 Level FlightAware ADS-B
Wed 11:52:55 AM 29.5017 -93.9046 312° West 382 440 20,600 -2,400 Descending FlightAware ADS-B
Wed 11:53:00 AM 29.5067 -93.9127 305° West 378 435 20,400 -2,182 Descending FlightAware ADS-B
Wed 11:53:06 AM 29.5118 -93.9236 298° West 375 432 20,200 -2,182 Descending FlightAware ADS-B
Wed 11:53:11 AM 29.5148 -93.9320 292° West 372 428 20,000 -2,182 Descending FlightAware ADS-B
Wed 11:53:17 AM 29.5177 -93.9435 286° West 369 425 19,800 -1,800 Descending FlightAware ADS-B
Wed 11:53:21 AM 29.5188 -93.9501 281° West 368 423 19,700 -1,714 Descending FlightAware ADS-B
Wed 11:53:24 AM 29.5195 -93.9572 277° West 368 423 19,600 -1,800 Descending FlightAware ADS-B
Wed 11:53:51 AM 29.5215 -94.0054 273° West 369 425 18,800 -1,742 Descending FlightAware ADS-B
Wed 11:53:55 AM 29.5219 -94.0176 272° West 370 426 18,700 -2,057 Descending FlightAware ADS-B
Wed 11:54:26 AM 29.5242 -94.0783 273° West 376 433 17,600 -2,167 Descending FlightAware ADS-B
Wed 11:54:31 AM 29.5246 -94.0873 273° West 377 434 17,400 -2,710 Descending FlightAware ADS-B
Wed 11:54:57 AM 29.5264 -94.1393 272° West 376 433 16,200 -2,800 Descending FlightAware ADS-B
Wed 11:55:01 AM 29.5267 -94.1473 272° West 376 433 16,000 -2,800 Descending FlightAware ADS-B
Wed 11:55:27 AM 29.5286 -94.2004 272° West 378 435 14,800 -2,769 Descending FlightAware ADS-B
Wed 11:55:40 AM 29.5296 -94.2278 272° West 380 437 14,200 -2,600 Descending FlightAware ADS-B
Wed 11:55:57 AM 29.5306 -94.2616 272° West 380 437 13,500 -2,710 Descending FlightAware ADS-B
Wed 11:56:11 AM 29.5314 -94.2866 272° West 381 438 12,800 -2,276 Descending FlightAware ADS-B
Wed 11:56:26 AM 29.5325 -94.3183 272° West 373 429 12,400 -1,200 Descending FlightAware ADS-B
Wed 11:56:31 AM 29.5334 -94.3282 276° West 368 423 12,400 -500 Level FlightAware ADS-B
Wed 11:56:38 AM 29.5358 -94.3421 281° West 356 410 12,300 -600 Descending FlightAware ADS-B
Wed 11:56:41 AM 29.5371 -94.3477 285° West 352 405 12,300  Level FlightAware ADS-B
Wed 11:56:44 AM 29.5386 -94.3532 287° West 349 402 12,300  Level FlightAware ADS-B
Wed 11:56:52 AM 29.5427 -94.3657 291° West 344 396 12,300 -1,135 Level FlightAware ADS-B
Wed 11:57:21 AM 29.5619 -94.4113 296° West 339 390 11,600 -1,600 Descending FlightAware ADS-B
Wed 11:57:22 AM 29.5636 -94.4152 296° West 339 390 11,500 -1,600 Descending FlightAware ADS-B
Wed 11:57:51 AM 29.5833 -94.4613 296° West 339 390 10,800 -1,355 Descending FlightAware ADS-B
Wed 11:57:53 AM 29.5847 -94.4644 297° West 339 390 10,800 -1,400 Level FlightAware ADS-B
Wed 11:58:21 AM 29.6042 -94.5103 296° West 335 386 10,100 -1,600 Descending FlightAware ADS-B
Wed 11:58:23 AM 29.6055 -94.5134 296° West 333 383 10,000 -1,059 Descending FlightAware ADS-B
Wed 11:58:38 AM 29.6156 -94.5375 296° West 326 375 9,800 -1,000 Descending FlightAware ADS-B
Wed 11:58:41 AM 29.6176 -94.5421 296° West 324 373 9,700 -1,125 Descending FlightAware ADS-B
Wed 11:58:54 AM 29.6258 -94.5615 296° West 322 371 9,500 -947 Descending FlightAware ADS-B
Wed 11:59:00 AM 29.6298 -94.5709 296° West 320 368 9,400 -400 Descending FlightAware ADS-B
Wed 11:59:09 AM 29.6356 -94.5845 296° West 318 366 9,400  Level FlightAware ADS-B
Wed 11:59:21 AM 29.6433 -94.6024 296° West 318 366 9,400  Level FlightAware ADS-B
Wed 11:59:24 AM 29.6454 -94.6071 297° West 318 366 9,400 -316 Level FlightAware ADS-B
Wed 11:59:40 AM 29.6555 -94.6304 297° West 301 346 9,300 -353 Descending FlightAware ADS-B
Wed 11:59:41 AM 29.6562 -94.6323 294° West 299 344 9,300  Level FlightAware ADS-B
Wed 11:59:55 AM 29.6646 -94.6518 296° West 284 327 9,300 -300 Level FlightAware ADS-B
Wed 12:00:01 PM 29.6668 -94.6570 296° West 283 326 9,200 -2,000 Descending FlightAware ADS-B
Wed 12:00:10 PM 29.6731 -94.6720 296° West 289 333 8,800 -2,400 Descending FlightAware ADS-B
Wed 12:00:21 PM 29.6799 -94.6881 296° West 291 335 8,400 -2,000 Descending FlightAware ADS-B
Wed 12:00:25 PM 29.6819 -94.6928 296° West 291 335 8,300 -1,263 Descending FlightAware ADS-B
Wed 12:00:40 PM 29.6909 -94.7136 296° West 287 330 8,000 -1,059 Descending FlightAware ADS-B
Wed 12:00:42 PM 29.6918 -94.7158 296° West 285 328 8,000 -857 Level FlightAware ADS-B
Wed 12:00:54 PM 29.6989 -94.7326 296° West 281 323 7,800 -1,200 Descending FlightAware ADS-B
Wed 12:01:02 PM 29.7030 -94.7427 295° West 278 320 7,600 -1,200 Descending FlightAware ADS-B
Wed 12:01:09 PM 29.7071 -94.7530 295° West 277 319 7,500 -1,263 Descending FlightAware ADS-B
Wed 12:01:21 PM 29.7135 -94.7687 295° West 276 318 7,200 -1,385 Descending FlightAware ADS-B
Wed 12:01:22 PM 29.7143 -94.7705 295° West 275 316 7,200 -1,600 Level FlightAware ADS-B
Wed 12:01:36 PM 29.7218 -94.7886 296° West 275 316 6,800 -1,579 Descending FlightAware ADS-B
Wed 12:01:41 PM 29.7247 -94.7953 297° West 275 316 6,700 -1,286 Descending FlightAware ADS-B
Wed 12:01:50 PM 29.7298 -94.8070 297° West 275 316 6,500 -1,429 Descending FlightAware ADS-B
Wed 12:02:02 PM 29.7358 -94.8205 297° West 275 316 6,200 -1,714 Descending FlightAware ADS-B
Wed 12:02:04 PM 29.7377 -94.8250 296° West 275 316 6,100 -1,286 Descending FlightAware ADS-B
Wed 12:02:16 PM 29.7444 -94.8405 296° West 272 313 5,900 -1,000 Descending FlightAware ADS-B
Wed 12:02:22 PM 29.7479 -94.8487 296° West 273 314 5,800 -1,200 Descending FlightAware ADS-B
Wed 12:02:31 PM 29.7528 -94.8602 296° West 274 315 5,600 -900 Descending FlightAware ADS-B
Wed 12:02:42 PM 29.7574 -94.8710 296° West 273 314 5,500 -750 Descending FlightAware ADS-B
Wed 12:02:47 PM 29.7615 -94.8804 296° West 273 314 5,400 -316 Descending FlightAware ADS-B
Wed 12:03:01 PM 29.7698 -94.9000 296° West 272 313 5,400  Level FlightAware ADS-B
Wed 12:03:02 PM 29.7698 -94.9000 293° West 272 313 5,400  Level FlightAware ADS-B
Wed 12:03:16 PM 29.7777 -94.9188 296° West 272 313 5,400  Level FlightAware ADS-B
Wed 12:03:22 PM 29.7809 -94.9262 296° West 272 313 5,400  Level FlightAware ADS-B
Wed 12:03:31 PM 29.7862 -94.9388 296° West 272 313 5,400  Level FlightAware ADS-B
Wed 12:03:42 PM 29.7916 -94.9518 296° West 273 314 5,400  Level FlightAware ADS-B
Wed 12:03:47 PM 29.7947 -94.9591 296° West 274 315 5,400  Level FlightAware ADS-B
Wed 12:04:02 PM 29.8033 -94.9796 296° West 274 315 5,400  Level FlightAware ADS-B
Wed 12:04:16 PM 29.8109 -94.9977 296° West 273 314 5,400  Level FlightAware ADS-B
Wed 12:04:21 PM 29.8138 -95.0045 296° West 273 314 5,400  Level FlightAware ADS-B
Wed 12:04:32 PM 29.8193 -95.0176 296° West 274 315 5,400  Level FlightAware ADS-B
Wed 12:04:42 PM 29.8247 -95.0305 296° West 274 315 5,400  Level FlightAware ADS-B
Wed 12:04:47 PM 29.8278 -95.0379 296° West 274 315 5,400  Level FlightAware ADS-B
Wed 12:05:02 PM 29.8361 -95.0576 296° West 276 318 5,400  Level FlightAware ADS-B
Wed 12:05:18 PM 29.8449 -95.0785 296° West 276 318 5,400  Level FlightAware ADS-B
Wed 12:05:21 PM 29.8471 -95.0836 296° West 276 318 5,400  Level FlightAware ADS-B
Wed 12:05:33 PM 29.8535 -95.0987 296° West 276 318 5,400  Level FlightAware ADS-B
Wed 12:05:41 PM 29.8579 -95.1091 296° West 277 319 5,400  Level FlightAware ADS-B
Wed 12:05:48 PM 29.8620 -95.1189 296° West 277 319 5,400  Level FlightAware ADS-B
Wed 12:05:57 PM 29.8671 -95.1310 296° West 276 318 5,400  Level FlightAware ADS-B
Wed 12:06:04 PM 29.8705 -95.1392 296° West 276 318 5,400  Level FlightAware ADS-B
Wed 12:06:19 PM 29.8792 -95.1600 296° West 277 319 5,400  Level FlightAware ADS-B
Wed 12:06:32 PM 29.8847 -95.1733 296° West 278 320 5,400  Level FlightAware ADS-B
Wed 12:06:34 PM 29.8877 -95.1802 296° West 278 320 5,400  Level FlightAware ADS-B
Wed 12:06:40 PM 29.8903 -95.1871 293° West 278 320 5,400  Level FlightAware ADS-B
Wed 12:06:46 PM 29.8933 -95.1964 290° West 279 321 5,400  Level FlightAware ADS-B
Wed 12:06:51 PM 29.8951 -95.2032 287° West 280 322 5,400  Level FlightAware ADS-B
Wed 12:06:52 PM 29.8954 -95.2046 286° West 280 322 5,400  Level FlightAware ADS-B
Wed 12:06:57 PM 29.8970 -95.2126 283° West 281 323 5,400  Level FlightAware ADS-B
Wed 12:07:04 PM 29.8983 -95.2216 279° West 282 325 5,400  Level FlightAware ADS-B
Wed 12:07:09 PM 29.8990 -95.2301 275° West 282 325 5,400  Level FlightAware ADS-B
Wed 12:07:12 PM 29.8992 -95.2337 273° West 282 325 5,400  Level FlightAware ADS-B
Wed 12:07:13 PM 29.8992 -95.2362 271° West 283 326 5,400  Level FlightAware ADS-B
Wed 12:07:29 PM 29.8993 -95.2592 270° West 283 326 5,400  Level FlightAware ADS-B
Wed 12:07:31 PM 29.8993 -95.2623 271° West 283 326 5,400 -400 Level FlightAware ADS-B
Wed 12:07:44 PM 29.8994 -95.2814 270° West 270 311 5,300  Descending FlightAware ADS-B
Wed 12:08:02 PM 29.8996 -95.3066 271° West 260 299 5,400 162 Climbing FlightAware ADS-B
Wed 12:08:21 PM 29.8997 -95.3334 270° West 252 290 5,400  Level FlightAware ADS-B
Wed 12:08:40 PM 29.8999 -95.3583 271° West 250 288 5,400  Level FlightAware ADS-B
Wed 12:08:42 PM 29.8999 -95.3603 271° West 249 287 5,400  Level FlightAware ADS-B
Wed 12:08:55 PM 29.9000 -95.3781 270° West 246 283 5,400  Level FlightAware ADS-B
Wed 12:09:02 PM 29.9001 -95.3863 271° West 243 280 5,400  Level FlightAware ADS-B
Wed 12:09:11 PM 29.9001 -95.3979 270° West 243 280 5,400 -333 Level FlightAware ADS-B
Wed 12:09:20 PM 29.9002 -95.4090 270° West 243 280 5,300 -400 Descending FlightAware ADS-B
Wed 12:09:26 PM 29.9002 -95.4173 270° West 243 280 5,300 -862 Level FlightAware ADS-B
Wed 12:11:00 PM 29.9833 -95.3333 311° West  Level FlightAware Approximate
Wed 12:12:00 PM 29.9844 -95.3414 311° West  Level Estimated
Wed 12:13:00 PM 29.9833 -95.3333 311° West  Level FlightAware Approximate
Wed 12:14:00 PM 29.9844 -95.3414 311° West  Level Estimated
Wed 12:14:47 PM 29.9931 -95.4114 311° West 152 175 600  Level FlightAware ADS-B
Wed 12:14:57 PM 29.9933 -95.4033 88° East 148 170 400 -960 Descending FlightAware ADS-B
Wed 12:15:12 PM 29.9933 -95.3915 90° East 145 167 200  Descending FlightAware ADS-B
Wed 12:15:22 PM 29.9933 -95.3843 90° East 143 165 200 Descending FlightAware ADS-B
Wed 12:16:12 PM 29.9950 -95.3542 90° East 166 191 400 480 Climbing Houston Center

Login

Don't have an account? Register now (free) for customized features, flight alerts, and more!